sensor_id;sensor_type;location;lat;lon;timestamp;pressure;altitude;pressure_sealevel;temperature;humidity
13709;BME280;54933;51.908;7.730;2023-06-24T00:00:47;101779.81;;;24.35;76.39
13709;BME280;54933;51.908;7.730;2023-06-24T00:03:12;101789.88;;;24.34;76.41
13709;BME280;54933;51.908;7.730;2023-06-24T00:05:42;101783.38;;;24.35;76.51
13709;BME280;54933;51.908;7.730;2023-06-24T00:08:08;101785.25;;;24.35;76.51
13709;BME280;54933;51.908;7.730;2023-06-24T00:10:33;101793.19;;;24.36;76.48
13709;BME280;54933;51.908;7.730;2023-06-24T00:12:59;101797.81;;;24.36;76.59
13709;BME280;54933;51.908;7.730;2023-06-24T00:15:27;101789.66;;;24.36;76.51
13709;BME280;54933;51.908;7.730;2023-06-24T00:17:52;101800.53;;;24.36;76.49
13709;BME280;54933;51.908;7.730;2023-06-24T00:20:17;101795.09;;;24.36;76.59
13709;BME280;54933;51.908;7.730;2023-06-24T00:22:45;101791.31;;;24.37;76.57
13709;BME280;54933;51.908;7.730;2023-06-24T00:25:14;101789.66;;;24.36;76.59
13709;BME280;54933;51.908;7.730;2023-06-24T00:27:40;101784.22;;;24.36;76.63
13709;BME280;54933;51.908;7.730;2023-06-24T00:30:06;101786.09;;;24.35;76.52
13709;BME280;54933;51.908;7.730;2023-06-24T00:32:32;101791.53;;;24.35;76.61
13709;BME280;54933;51.908;7.730;2023-06-24T00:34:57;101783.38;;;24.35;76.50
13709;BME280;54933;51.908;7.730;2023-06-24T00:37:25;101795.09;;;24.36;76.49
13709;BME280;54933;51.908;7.730;2023-06-24T00:39:50;101787.75;;;24.36;76.70
13709;BME280;54933;51.908;7.730;2023-06-24T00:42:15;101789.66;;;24.36;76.62
13709;BME280;54933;51.908;7.730;2023-06-24T00:44:41;101795.09;;;24.36;76.77
13709;BME280;54933;51.908;7.730;2023-06-24T00:47:06;101797.81;;;24.36;76.70
13709;BME280;54933;51.908;7.730;2023-06-24T00:49:33;101803.25;;;24.36;76.73
13709;BME280;54933;51.908;7.730;2023-06-24T00:51:58;101800.53;;;24.36;76.32
13709;BME280;54933;51.908;7.730;2023-06-24T00:54:26;101788.81;;;24.35;76.63
13709;BME280;54933;51.908;7.730;2023-06-24T00:56:56;101789.66;;;24.36;76.55
13709;BME280;54933;51.908;7.730;2023-06-24T00:59:21;101793.41;;;24.35;76.44
13709;BME280;54933;51.908;7.730;2023-06-24T01:01:46;101796.97;;;24.35;76.12
13709;BME280;54933;51.908;7.730;2023-06-24T01:04:12;101789.66;;;24.36;76.61
13709;BME280;54933;51.908;7.730;2023-06-24T01:06:38;101793.41;;;24.35;76.57
13709;BME280;54933;51.908;7.730;2023-06-24T01:09:08;101790.69;;;24.35;76.52
13709;BME280;54933;51.908;7.730;2023-06-24T01:11:34;101792.38;;;24.36;76.40
13709;BME280;54933;51.908;7.730;2023-06-24T01:13:59;101793.41;;;24.35;76.42
13709;BME280;54933;51.908;7.730;2023-06-24T01:16:51;101786.94;;;24.36;76.42
13709;BME280;54933;51.908;7.730;2023-06-24T01:25:00;101781.72;;;24.34;76.34
13709;BME280;54933;51.908;7.730;2023-06-24T01:27:50;101785.25;;;24.35;76.34
13709;BME280;54933;51.908;7.730;2023-06-24T01:30:37;101783.59;;;24.34;76.13
13709;BME280;54933;51.908;7.730;2023-06-24T01:33:09;101786.31;;;24.34;76.33
13709;BME280;54933;51.908;7.730;2023-06-24T01:35:35;101784.63;;;24.33;76.34
13709;BME280;54933;51.908;7.730;2023-06-24T01:38:08;101777.31;;;24.33;76.23
13709;BME280;54933;51.908;7.730;2023-06-24T01:40:41;101774.59;;;24.33;76.35
13709;BME280;54933;51.908;7.730;2023-06-24T01:43:08;101780.88;;;24.34;76.27
13709;BME280;54933;51.908;7.730;2023-06-24T01:45:49;101785.47;;;24.33;76.23
13709;BME280;54933;51.908;7.730;2023-06-24T01:48:19;101780.03;;;24.33;76.23
13709;BME280;54933;51.908;7.730;2023-06-24T01:50:55;101784.63;;;24.33;76.25
13709;BME280;54933;51.908;7.730;2023-06-24T01:53:22;101785.47;;;24.33;76.23
13709;BME280;54933;51.908;7.730;2023-06-24T01:55:49;101788.19;;;24.33;76.20
13709;BME280;54933;51.908;7.730;2023-06-24T01:58:17;101790.28;;;24.31;76.19
13709;BME280;54933;51.908;7.730;2023-06-24T02:00:43;101784.84;;;24.31;76.22
13709;BME280;54933;51.908;7.730;2023-06-24T02:03:09;101783.81;;;24.32;76.36
13709;BME280;54933;51.908;7.730;2023-06-24T02:05:36;101781.31;;;24.31;76.15
13709;BME280;54933;51.908;7.730;2023-06-24T02:08:05;101786.75;;;24.31;76.44
13709;BME280;54933;51.908;7.730;2023-06-24T02:10:33;101775.88;;;24.31;76.04
13709;BME280;54933;51.908;7.730;2023-06-24T02:12:58;101775.03;;;24.30;76.23
13709;BME280;54933;51.908;7.730;2023-06-24T02:15:25;101780.47;;;24.30;76.32
13709;BME280;54933;51.908;7.730;2023-06-24T02:17:53;101786.75;;;24.31;76.13
13709;BME280;54933;51.908;7.730;2023-06-24T02:20:21;101786.75;;;24.31;76.22
13709;BME280;54933;51.908;7.730;2023-06-24T02:22:53;101782.13;;;24.31;76.35
13709;BME280;54933;51.908;7.730;2023-06-24T02:25:19;101782.13;;;24.31;76.19
13709;BME280;54933;51.908;7.730;2023-06-24T02:27:45;101779.63;;;24.30;76.34
13709;BME280;54933;51.908;7.730;2023-06-24T02:30:13;101793.00;;;24.31;76.26
13709;BME280;54933;51.908;7.730;2023-06-24T02:32:39;101782.97;;;24.32;76.25
13709;BME280;54933;51.908;7.730;2023-06-24T02:35:05;101788.41;;;24.32;76.28
13709;BME280;54933;51.908;7.730;2023-06-24T02:37:32;101781.31;;;24.31;76.28
13709;BME280;54933;51.908;7.730;2023-06-24T02:39:57;101772.09;;;24.32;76.33
13709;BME280;54933;51.908;7.730;2023-06-24T02:42:23;101775.88;;;24.31;76.32
13709;BME280;54933;51.908;7.730;2023-06-24T02:44:48;101775.88;;;24.31;76.22
13709;BME280;54933;51.908;7.730;2023-06-24T02:47:15;101782.97;;;24.32;76.41
13709;BME280;54933;51.908;7.730;2023-06-24T02:49:44;101781.31;;;24.31;76.40
13709;BME280;54933;51.908;7.730;2023-06-24T02:52:11;101786.75;;;24.31;76.43
13709;BME280;54933;51.908;7.730;2023-06-24T02:54:37;101790.28;;;24.31;76.55
13709;BME280;54933;51.908;7.730;2023-06-24T02:57:05;101791.34;;;24.30;76.45
13709;BME280;54933;51.908;7.730;2023-06-24T02:59:32;101794.91;;;24.31;76.47
13709;BME280;54933;51.908;7.730;2023-06-24T03:01:57;101790.50;;;24.30;76.51
13709;BME280;54933;51.908;7.730;2023-06-24T03:04:24;101787.56;;;24.31;76.50
13709;BME280;54933;51.908;7.730;2023-06-24T03:06:50;101788.41;;;24.32;76.53
13709;BME280;54933;51.908;7.730;2023-06-24T03:09:16;101791.34;;;24.30;76.67
13709;BME280;54933;51.908;7.730;2023-06-24T03:11:42;101790.50;;;24.30;76.49
13709;BME280;54933;51.908;7.730;2023-06-24T03:14:08;101794.91;;;24.31;76.58
13709;BME280;54933;51.908;7.730;2023-06-24T03:16:34;101797.63;;;24.31;76.63
13709;BME280;54933;51.908;7.730;2023-06-24T03:19:00;101803.03;;;24.31;76.56
13709;BME280;54933;51.908;7.730;2023-06-24T03:21:25;101795.94;;;24.30;76.57
13709;BME280;54933;51.908;7.730;2023-06-24T03:23:53;101793.84;;;24.32;76.66
13709;BME280;54933;51.908;7.730;2023-06-24T03:26:18;101797.63;;;24.31;76.46
13709;BME280;54933;51.908;7.730;2023-06-24T03:28:44;101794.91;;;24.31;76.56
13709;BME280;54933;51.908;7.730;2023-06-24T03:31:09;101796.78;;;24.30;76.58
13709;BME280;54933;51.908;7.730;2023-06-24T03:33:34;101792.19;;;24.31;76.54
13709;BME280;54933;51.908;7.730;2023-06-24T03:35:59;101792.19;;;24.31;76.46
13709;BME280;54933;51.908;7.730;2023-06-24T03:38:25;101798.63;;;24.30;76.42
13709;BME280;54933;51.908;7.730;2023-06-24T03:40:50;101794.06;;;24.30;76.63
13709;BME280;54933;51.908;7.730;2023-06-24T03:43:15;101803.03;;;24.31;76.48
13709;BME280;54933;51.908;7.730;2023-06-24T03:45:40;101798.63;;;24.30;76.75
13709;BME280;54933;51.908;7.730;2023-06-24T03:48:06;101804.91;;;24.30;76.50
13709;BME280;54933;51.908;7.730;2023-06-24T03:50:31;101797.00;;;24.29;76.50
13709;BME280;54933;51.908;7.730;2023-06-24T03:52:56;101800.53;;;24.29;76.47
13709;BME280;54933;51.908;7.730;2023-06-24T03:55:21;101795.94;;;24.30;76.46
13709;BME280;54933;51.908;7.730;2023-06-24T03:57:47;101806.78;;;24.30;76.33
13709;BME280;54933;51.908;7.730;2023-06-24T04:00:12;101797.81;;;24.29;76.37
13709;BME280;54933;51.908;7.730;2023-06-24T04:02:41;101797.81;;;24.29;76.24
13709;BME280;54933;51.908;7.730;2023-06-24T04:05:07;101805.97;;;24.29;76.30
13709;BME280;54933;51.908;7.730;2023-06-24T04:07:33;101795.31;;;24.28;76.22
13709;BME280;54933;51.908;7.730;2023-06-24T04:10:02;101803.47;;;24.28;76.34
13709;BME280;54933;51.908;7.730;2023-06-24T04:12:29;101804.28;;;24.28;76.38
13709;BME280;54933;51.908;7.730;2023-06-24T04:14:54;101811.63;;;24.28;76.27
13709;BME280;54933;51.908;7.730;2023-06-24T04:17:19;101805.13;;;24.29;76.09
13709;BME280;54933;51.908;7.730;2023-06-24T04:19:45;101810.56;;;24.29;76.15
13709;BME280;54933;51.908;7.730;2023-06-24T04:22:10;101808.06;;;24.27;76.08
13709;BME280;54933;51.908;7.730;2023-06-24T04:24:35;101805.56;;;24.26;76.11
13709;BME280;54933;51.908;7.730;2023-06-24T04:27:01;101810.16;;;24.25;76.25
13709;BME280;54933;51.908;7.730;2023-06-24T04:29:26;101810.16;;;24.25;76.28
13709;BME280;54933;51.908;7.730;2023-06-24T04:31:51;101809.31;;;24.25;76.40
13709;BME280;54933;51.908;7.730;2023-06-24T04:34:16;101802.22;;;24.24;76.30
13709;BME280;54933;51.908;7.730;2023-06-24T04:36:42;101803.06;;;24.24;76.28
13709;BME280;54933;51.908;7.730;2023-06-24T04:39:07;101808.50;;;24.24;76.30
13709;BME280;54933;51.908;7.730;2023-06-24T04:41:33;101797.84;;;24.23;76.25
13709;BME280;54933;51.908;7.730;2023-06-24T04:43:58;101807.66;;;24.24;76.53
13709;BME280;54933;51.908;7.730;2023-06-24T04:46:23;101800.34;;;24.24;76.18
13709;BME280;54933;51.908;7.730;2023-06-24T04:48:48;101802.22;;;24.24;76.65
13709;BME280;54933;51.908;7.730;2023-06-24T04:51:14;101806.00;;;24.23;76.06
13709;BME280;54933;51.908;7.730;2023-06-24T04:53:40;101800.56;;;24.23;76.36
13709;BME280;54933;51.908;7.730;2023-06-24T04:56:05;101800.56;;;24.23;76.22
13709;BME280;54933;51.908;7.730;2023-06-24T04:58:30;101797.84;;;24.23;76.12
13709;BME280;54933;51.908;7.730;2023-06-24T05:00:56;101797.84;;;24.23;76.22
13709;BME280;54933;51.908;7.730;2023-06-24T05:03:21;101793.44;;;24.22;76.18
13709;BME280;54933;51.908;7.730;2023-06-24T05:05:46;101791.56;;;24.22;76.16
13709;BME280;54933;51.908;7.730;2023-06-24T05:08:11;101802.44;;;24.22;76.12
13709;BME280;54933;51.908;7.730;2023-06-24T05:10:37;101800.56;;;24.23;76.20
13709;BME280;54933;51.908;7.730;2023-06-24T05:13:02;101811.44;;;24.23;76.16
13709;BME280;54933;51.908;7.730;2023-06-24T05:15:27;101811.44;;;24.23;76.09
13709;BME280;54933;51.908;7.730;2023-06-24T05:17:52;101806.00;;;24.23;75.99
13709;BME280;54933;51.908;7.730;2023-06-24T05:20:18;101805.16;;;24.22;76.24
13709;BME280;54933;51.908;7.730;2023-06-24T05:22:43;101806.00;;;24.23;76.20
13709;BME280;54933;51.908;7.730;2023-06-24T05:25:09;101811.44;;;24.23;76.20
13709;BME280;54933;51.908;7.730;2023-06-24T05:27:34;101810.59;;;24.22;76.12
13709;BME280;54933;51.908;7.730;2023-06-24T05:29:59;101821.44;;;24.22;76.24
13709;BME280;54933;51.908;7.730;2023-06-24T05:32:24;101812.47;;;24.22;76.39
13709;BME280;54933;51.908;7.730;2023-06-24T05:34:50;101816.03;;;24.22;76.39
13709;BME280;54933;51.908;7.730;2023-06-24T05:37:15;101813.50;;;24.21;76.41
13709;BME280;54933;51.908;7.730;2023-06-24T05:39:41;101814.38;;;24.21;76.53
13709;BME280;54933;51.908;7.730;2023-06-24T05:42:06;101814.38;;;24.21;76.40
13709;BME280;54933;51.908;7.730;2023-06-24T05:44:31;101811.66;;;24.21;76.52
13709;BME280;54933;51.908;7.730;2023-06-24T05:46:56;101810.59;;;24.22;76.65
13709;BME280;54933;51.908;7.730;2023-06-24T05:49:22;101820.59;;;24.22;76.50
13709;BME280;54933;51.908;7.730;2023-06-24T05:51:48;101809.13;;;24.20;76.54
13709;BME280;54933;51.908;7.730;2023-06-24T05:54:14;101815.16;;;24.22;76.62
13709;BME280;54933;51.908;7.730;2023-06-24T05:56:39;101812.47;;;24.22;76.53
13709;BME280;54933;51.908;7.730;2023-06-24T05:59:04;101815.16;;;24.22;76.59
13709;BME280;54933;51.908;7.730;2023-06-24T06:01:29;101817.88;;;24.22;76.86
13709;BME280;54933;51.908;7.730;2023-06-24T06:03:55;101819.78;;;24.21;76.77
13709;BME280;54933;51.908;7.730;2023-06-24T06:06:20;101827.94;;;24.21;76.71
13709;BME280;54933;51.908;7.730;2023-06-24T06:08:47;101818.94;;;24.21;76.70
13709;BME280;54933;51.908;7.730;2023-06-24T06:11:12;101826.03;;;24.22;76.69
13709;BME280;54933;51.908;7.730;2023-06-24T06:13:37;101812.66;;;24.20;76.76
13709;BME280;54933;51.908;7.730;2023-06-24T06:16:03;101823.31;;;24.22;76.62
13709;BME280;54933;51.908;7.730;2023-06-24T06:18:28;101810.81;;;24.21;76.71
13709;BME280;54933;51.908;7.730;2023-06-24T06:20:53;101818.94;;;24.21;76.73
13709;BME280;54933;51.908;7.730;2023-06-24T06:23:19;101812.47;;;24.22;76.42
13709;BME280;54933;51.908;7.730;2023-06-24T06:25:44;101819.78;;;24.21;76.67
13709;BME280;54933;51.908;7.730;2023-06-24T06:28:09;101808.09;;;24.21;76.59
13709;BME280;54933;51.908;7.730;2023-06-24T06:30:35;101820.59;;;24.22;76.62
13709;BME280;54933;51.908;7.730;2023-06-24T06:33:00;101820.59;;;24.22;76.67
13709;BME280;54933;51.908;7.730;2023-06-24T06:35:26;101820.59;;;24.22;76.75
13709;BME280;54933;51.908;7.730;2023-06-24T06:37:51;101822.28;;;24.23;76.57
13709;BME280;54933;51.908;7.730;2023-06-24T06:40:20;101823.31;;;24.22;76.62
13709;BME280;54933;51.908;7.730;2023-06-24T06:42:45;101826.88;;;24.22;77.19
13709;BME280;54933;51.908;7.730;2023-06-24T06:45:11;101825.81;;;24.23;76.70
13709;BME280;54933;51.908;7.730;2023-06-24T06:47:36;101829.38;;;24.24;76.83
13709;BME280;54933;51.908;7.730;2023-06-24T06:50:01;101832.09;;;24.24;76.84
13709;BME280;54933;51.908;7.730;2023-06-24T06:52:27;101828.53;;;24.23;76.99
13709;BME280;54933;51.908;7.730;2023-06-24T06:54:55;101825.00;;;24.23;76.90
13709;BME280;54933;51.908;7.730;2023-06-24T06:57:20;101828.53;;;24.23;77.00
13709;BME280;54933;51.908;7.730;2023-06-24T06:59:46;101830.44;;;24.23;76.92
13709;BME280;54933;51.908;7.730;2023-06-24T07:02:11;101829.38;;;24.24;76.97
13709;BME280;54933;51.908;7.730;2023-06-24T07:04:36;101833.97;;;24.23;76.76
13709;BME280;54933;51.908;7.730;2023-06-24T07:07:02;101833.16;;;24.23;77.03
13709;BME280;54933;51.908;7.730;2023-06-24T07:09:27;101825.00;;;24.23;77.13
13709;BME280;54933;51.908;7.730;2023-06-24T07:11:53;101827.72;;;24.23;76.98
13709;BME280;54933;51.908;7.730;2023-06-24T07:14:18;101823.09;;;24.23;77.09
13709;BME280;54933;51.908;7.730;2023-06-24T07:16:43;101827.72;;;24.23;77.07
13709;BME280;54933;51.908;7.730;2023-06-24T07:19:08;101834.81;;;24.24;77.10
13709;BME280;54933;51.908;7.730;2023-06-24T07:21:34;101832.09;;;24.24;77.19
13709;BME280;54933;51.908;7.730;2023-06-24T07:23:59;101834.81;;;24.24;77.18
13709;BME280;54933;51.908;7.730;2023-06-24T07:26:24;101839.41;;;24.23;77.16
13709;BME280;54933;51.908;7.730;2023-06-24T07:28:49;101834.81;;;24.24;77.31
13709;BME280;54933;51.908;7.730;2023-06-24T07:31:15;101825.81;;;24.23;77.41
13709;BME280;54933;51.908;7.730;2023-06-24T07:33:41;101830.22;;;24.24;77.23
13709;BME280;54933;51.908;7.730;2023-06-24T07:36:06;101834.81;;;24.24;77.27
13709;BME280;54933;51.908;7.730;2023-06-24T07:38:31;101826.66;;;24.24;77.28
13709;BME280;54933;51.908;7.730;2023-06-24T07:40:56;101826.66;;;24.24;77.30
13709;BME280;54933;51.908;7.730;2023-06-24T07:43:22;101829.38;;;24.24;77.18
13709;BME280;54933;51.908;7.730;2023-06-24T07:45:47;101823.94;;;24.24;77.36
13709;BME280;54933;51.908;7.730;2023-06-24T07:48:12;101832.31;;;24.22;77.38
13709;BME280;54933;51.908;7.730;2023-06-24T07:50:38;101831.47;;;24.22;77.39
13709;BME280;54933;51.908;7.730;2023-06-24T07:53:04;101829.81;;;24.21;77.26
13709;BME280;54933;51.908;7.730;2023-06-24T07:55:29;101831.47;;;24.22;77.39
13709;BME280;54933;51.908;7.730;2023-06-24T07:57:54;101830.66;;;24.21;77.53
13709;BME280;54933;51.908;7.730;2023-06-24T08:00:20;101829.81;;;24.21;77.42
13709;BME280;54933;51.908;7.730;2023-06-24T08:02:45;101819.78;;;24.21;77.55
13709;BME280;54933;51.908;7.730;2023-06-24T08:05:10;101831.47;;;24.22;77.69
13709;BME280;54933;51.908;7.730;2023-06-24T08:07:37;101831.47;;;24.22;77.64
13709;BME280;54933;51.908;7.730;2023-06-24T08:10:02;101827.94;;;24.21;77.54
13709;BME280;54933;51.908;7.730;2023-06-24T08:12:27;101825.84;;;24.17;77.26
13709;BME280;54933;51.908;7.730;2023-06-24T08:14:53;101826.47;;;24.19;77.48
13709;BME280;54933;51.908;7.730;2023-06-24T08:17:18;101823.53;;;24.20;77.52
13709;BME280;54933;51.908;7.730;2023-06-24T08:19:43;101829.81;;;24.21;77.55
13709;BME280;54933;51.908;7.730;2023-06-24T08:22:09;101824.16;;;24.22;77.51
13709;BME280;54933;51.908;7.730;2023-06-24T08:24:34;101825.00;;;24.23;77.62
13709;BME280;54933;51.908;7.730;2023-06-24T08:26:59;101825.00;;;24.23;77.49
13709;BME280;54933;51.908;7.730;2023-06-24T08:29:24;101820.19;;;24.25;77.66
13709;BME280;54933;51.908;7.730;2023-06-24T08:31:50;101823.72;;;24.25;77.64
13709;BME280;54933;51.908;7.730;2023-06-24T08:34:15;101821.88;;;24.26;77.74
13709;BME280;54933;51.908;7.730;2023-06-24T08:36:40;101818.53;;;24.24;77.69
13709;BME280;54933;51.908;7.730;2023-06-24T08:39:07;101820.19;;;24.25;77.90
13709;BME280;54933;51.908;7.730;2023-06-24T08:41:32;101818.53;;;24.24;78.01
13709;BME280;54933;51.908;7.730;2023-06-24T08:43:58;101820.19;;;24.25;78.01
13709;BME280;54933;51.908;7.730;2023-06-24T08:46:27;101818.94;;;24.27;78.07
13709;BME280;54933;51.908;7.730;2023-06-24T08:52:13;101812.44;;;24.28;77.83
13709;BME280;54933;51.908;7.730;2023-06-24T08:54:40;101805.97;;;24.29;77.77
13709;BME280;54933;51.908;7.730;2023-06-24T08:57:06;101804.28;;;24.28;77.57
13709;BME280;54933;51.908;7.730;2023-06-24T08:59:36;101798.03;;;24.28;77.92
13709;BME280;54933;51.908;7.730;2023-06-24T09:02:02;101797.00;;;24.29;77.87
13709;BME280;54933;51.908;7.730;2023-06-24T09:04:27;101805.97;;;24.29;77.99
13709;BME280;54933;51.908;7.730;2023-06-24T09:06:52;101805.13;;;24.29;78.09
13709;BME280;54933;51.908;7.730;2023-06-24T09:09:21;101805.97;;;24.29;77.89
13709;BME280;54933;51.908;7.730;2023-06-24T09:11:55;101801.34;;;24.30;77.97
13709;BME280;54933;51.908;7.730;2023-06-24T09:14:21;101797.63;;;24.31;78.09
13709;BME280;54933;51.908;7.730;2023-06-24T09:16:56;101805.34;;;24.34;78.25
13709;BME280;54933;51.908;7.730;2023-06-24T09:19:23;101800.94;;;24.33;78.60
13709;BME280;54933;51.908;7.730;2023-06-24T09:21:49;101801.97;;;24.32;78.95
13709;BME280;54933;51.908;7.730;2023-06-24T09:24:16;101797.63;;;24.31;78.72
13709;BME280;54933;51.908;7.730;2023-06-24T09:26:42;101791.34;;;24.30;78.66
13709;BME280;54933;51.908;7.730;2023-06-24T09:29:10;101783.19;;;24.30;78.52
13709;BME280;54933;51.908;7.730;2023-06-24T09:31:35;101778.81;;;24.29;78.05
13709;BME280;54933;51.908;7.730;2023-06-24T09:34:00;101782.34;;;24.30;78.27
13709;BME280;54933;51.908;7.730;2023-06-24T09:36:26;101773.16;;;24.31;78.01
13709;BME280;54933;51.908;7.730;2023-06-24T09:38:51;101768.75;;;24.30;77.92
13709;BME280;54933;51.908;7.730;2023-06-24T09:41:16;101767.72;;;24.31;77.94
13709;BME280;54933;51.908;7.730;2023-06-24T09:43:43;101771.25;;;24.31;77.74
13709;BME280;54933;51.908;7.730;2023-06-24T09:46:13;101772.94;;;24.32;77.81
13709;BME280;54933;51.908;7.730;2023-06-24T09:48:39;101765.81;;;24.31;77.65
13709;BME280;54933;51.908;7.730;2023-06-24T09:51:04;101770.44;;;24.31;77.83
13709;BME280;54933;51.908;7.730;2023-06-24T09:53:34;101771.03;;;24.33;77.87
13709;BME280;54933;51.908;7.730;2023-06-24T09:56:01;101770.22;;;24.32;77.68
13709;BME280;54933;51.908;7.730;2023-06-24T09:58:30;101766.66;;;24.32;77.94
13709;BME280;54933;51.908;7.730;2023-06-24T10:00:57;101761.25;;;24.32;77.94
13709;BME280;54933;51.908;7.730;2023-06-24T10:03:26;101762.09;;;24.32;77.92
13709;BME280;54933;51.908;7.730;2023-06-24T10:05:52;101770.00;;;24.34;77.94
13709;BME280;54933;51.908;7.730;2023-06-24T10:08:17;101767.94;;;24.36;78.23
13709;BME280;54933;51.908;7.730;2023-06-24T10:10:43;101763.31;;;24.36;77.92
13709;BME280;54933;51.908;7.730;2023-06-24T10:13:09;101756.00;;;24.37;77.82
13709;BME280;54933;51.908;7.730;2023-06-24T10:15:35;101758.53;;;24.32;77.15
13709;BME280;54933;51.908;7.730;2023-06-24T10:18:02;101752.03;;;24.33;77.25
13709;BME280;54933;51.908;7.730;2023-06-24T10:20:28;101748.28;;;24.34;77.37
13709;BME280;54933;51.908;7.730;2023-06-24T10:22:53;101742.00;;;24.33;77.52
13709;BME280;54933;51.908;7.730;2023-06-24T10:25:19;101740.34;;;24.32;77.57
13709;BME280;54933;51.908;7.730;2023-06-24T10:27:44;101738.25;;;24.34;77.71
13709;BME280;54933;51.908;7.730;2023-06-24T10:30:19;101735.72;;;24.33;77.93
13709;BME280;54933;51.908;7.730;2023-06-24T10:32:51;101739.28;;;24.33;78.03
13709;BME280;54933;51.908;7.730;2023-06-24T10:35:24;101738.25;;;24.34;77.94
13709;BME280;54933;51.908;7.730;2023-06-24T10:37:59;101734.69;;;24.34;78.03
13709;BME280;54933;51.908;7.730;2023-06-24T10:40:54;101726.53;;;24.34;77.96
13709;BME280;54933;51.908;7.730;2023-06-24T10:43:26;101723.84;;;24.34;78.10
13709;BME280;54933;51.908;7.730;2023-06-24T10:45:54;101720.28;;;24.33;78.17
13709;BME280;54933;51.908;7.730;2023-06-24T10:48:20;101727.38;;;24.34;78.23
13709;BME280;54933;51.908;7.730;2023-06-24T10:50:45;101725.69;;;24.33;78.43
13709;BME280;54933;51.908;7.730;2023-06-24T10:53:12;101721.34;;;24.32;78.27
13709;BME280;54933;51.908;7.730;2023-06-24T10:55:38;101714.84;;;24.33;78.43
13709;BME280;54933;51.908;7.730;2023-06-24T10:58:07;101708.38;;;24.34;78.42
13709;BME280;54933;51.908;7.730;2023-06-24T11:00:33;101715.69;;;24.34;78.44
13709;BME280;54933;51.908;7.730;2023-06-24T11:03:16;101717.34;;;24.35;78.41
13709;BME280;54933;51.908;7.730;2023-06-24T11:05:44;101719.25;;;24.34;78.61
13709;BME280;54933;51.908;7.730;2023-06-24T11:08:10;101702.09;;;24.34;78.61
13709;BME280;54933;51.908;7.730;2023-06-24T11:10:48;101697.28;;;24.36;78.52
13709;BME280;54933;51.908;7.730;2023-06-24T11:13:14;101696.44;;;24.35;78.43
13709;BME280;54933;51.908;7.730;2023-06-24T11:15:40;101701.03;;;24.35;78.60
13709;BME280;54933;51.908;7.730;2023-06-24T11:18:11;101710.88;;;24.36;78.31
13709;BME280;54933;51.908;7.730;2023-06-24T11:20:37;101708.16;;;24.36;78.49
13709;BME280;54933;51.908;7.730;2023-06-24T11:23:06;101710.88;;;24.36;78.62
13709;BME280;54933;51.908;7.730;2023-06-24T11:25:39;101701.88;;;24.35;78.42
13709;BME280;54933;51.908;7.730;2023-06-24T11:28:04;101689.13;;;24.36;78.60
13709;BME280;54933;51.908;7.730;2023-06-24T11:30:34;101697.28;;;24.36;78.46
13709;BME280;54933;51.908;7.730;2023-06-24T11:32:59;101698.94;;;24.37;78.90
13709;BME280;54933;51.908;7.730;2023-06-24T11:35:25;101701.88;;;24.35;78.70
13709;BME280;54933;51.908;7.730;2023-06-24T11:37:50;101698.09;;;24.36;78.80
13709;BME280;54933;51.908;7.730;2023-06-24T11:40:18;101699.16;;;24.35;78.84
13709;BME280;54933;51.908;7.730;2023-06-24T11:42:44;101696.44;;;24.35;78.85
13709;BME280;54933;51.908;7.730;2023-06-24T11:45:11;101700.59;;;24.38;78.87
13709;BME280;54933;51.908;7.730;2023-06-24T11:47:38;101694.94;;;24.39;78.85
13709;BME280;54933;51.908;7.730;2023-06-24T11:50:08;101692.22;;;24.39;78.88
13709;BME280;54933;51.908;7.730;2023-06-24T11:52:44;101684.91;;;24.40;78.83
13709;BME280;54933;51.908;7.730;2023-06-24T11:55:17;101685.13;;;24.38;78.61
13709;BME280;54933;51.908;7.730;2023-06-24T11:58:01;101688.91;;;24.37;78.65
13709;BME280;54933;51.908;7.730;2023-06-24T12:00:31;101688.06;;;24.37;78.90
13709;BME280;54933;51.908;7.730;2023-06-24T12:02:59;101677.22;;;24.37;78.73
13709;BME280;54933;51.908;7.730;2023-06-24T12:05:35;101684.28;;;24.38;78.63
13709;BME280;54933;51.908;7.730;2023-06-24T12:08:09;101681.59;;;24.38;78.79
13709;BME280;54933;51.908;7.730;2023-06-24T12:10:37;101678.28;;;24.36;78.69
13709;BME280;54933;51.908;7.730;2023-06-24T12:13:03;101678.28;;;24.36;78.75
13709;BME280;54933;51.908;7.730;2023-06-24T12:15:31;101682.63;;;24.37;78.74
13709;BME280;54933;51.908;7.730;2023-06-24T12:17:57;101682.63;;;24.37;78.71
13709;BME280;54933;51.908;7.730;2023-06-24T12:20:24;101677.22;;;24.37;78.88
13709;BME280;54933;51.908;7.730;2023-06-24T12:22:49;101675.34;;;24.37;78.89
13709;BME280;54933;51.908;7.730;2023-06-24T12:25:16;101679.94;;;24.37;78.94
13709;BME280;54933;51.908;7.730;2023-06-24T12:27:42;101674.28;;;24.38;78.76
13709;BME280;54933;51.908;7.730;2023-06-24T12:30:08;101674.91;;;24.40;78.69
13709;BME280;54933;51.908;7.730;2023-06-24T12:32:34;101677.84;;;24.39;78.24
13709;BME280;54933;51.908;7.730;2023-06-24T12:35:00;101659.84;;;24.38;78.01
13709;BME280;54933;51.908;7.730;2023-06-24T12:37:25;101665.06;;;24.39;77.61
13709;BME280;54933;51.908;7.730;2023-06-24T12:39:50;101666.97;;;24.39;77.86
13709;BME280;54933;51.908;7.730;2023-06-24T12:42:18;101663.41;;;24.38;77.94
13709;BME280;54933;51.908;7.730;2023-06-24T12:44:44;101664.25;;;24.39;77.97
13709;BME280;54933;51.908;7.730;2023-06-24T12:47:09;101656.72;;;24.41;78.11
13709;BME280;54933;51.908;7.730;2023-06-24T12:49:34;101653.38;;;24.39;77.95
13709;BME280;54933;51.908;7.730;2023-06-24T12:52:01;101658.81;;;24.39;77.86
13709;BME280;54933;51.908;7.730;2023-06-24T12:54:26;101655.03;;;24.40;78.01
13709;BME280;54933;51.908;7.730;2023-06-24T12:56:51;101647.50;;;24.42;77.98